»·PEaware :: EZY156 KLAS-KSFO

EZY156 :: KLAS-KSFO

FLIGHT INFORMATION

Flight Status: Arrived
Operator:
EasyJet
More flights by this operator :: More flights under this callsign
Pilot: Shaurye C. (26796)
Aircraft: AIRBUS A320
(A320)
More flights by this aircraft type
Origin: KLAS McCarran Intl
United States
Destination: KSFO San Francisco Intl
United States
More flights between these airports :: More routes between these airports
Route: SHEAD1 KENNO RUSME DYAMD5
File this flight plan on PilotEdge
Remarks: RMK / SIMBRIEF
Altitude:
(Current/Filed)
38,000ft
Speed:
(Current/Filed)
439kts
Departed: 07-Nov-19 01:11 PM
Arrived: 07-Nov-19 02:28 PM
Distance/Time
Traveled:
359nm/1:16
Distance/Time
To Go:
Arrived

Flight Plot

Page will automatically refresh every two minutes.

Flight plan parsing failed; only flown route is shown


Map Options




Map Legend


Flown Route
Filed Route
Departure Airport
Arrival Airport
Navaid (VOR, NDB)
Fix

Horizontal Profiles

Position Reports

Time Latitude Longitude Heading Altitude Ground
Speed
07-Nov-19 12:26 36.080755 -115.147519 0 2098ft 0kts
07-Nov-19 12:27 36.080755 -115.147519 60 2098ft 0kts
07-Nov-19 12:28 36.080755 -115.147519 60 2098ft 0kts
07-Nov-19 12:29 36.080755 -115.147519 60 2098ft 0kts
07-Nov-19 12:30 36.080755 -115.147519 60 2098ft 0kts
07-Nov-19 12:31 36.080755 -115.147519 60 2098ft 0kts
07-Nov-19 12:32 36.080755 -115.147519 60 2098ft 0kts
07-Nov-19 12:33 36.080755 -115.147519 60 2098ft 0kts
07-Nov-19 12:34 36.080755 -115.147519 60 2098ft 0kts
07-Nov-19 12:35 36.080755 -115.147519 60 2098ft 0kts
07-Nov-19 12:36 36.080755 -115.147519 60 2098ft 0kts
07-Nov-19 12:37 36.080755 -115.147519 60 2098ft 0kts
07-Nov-19 12:38 36.080755 -115.147519 60 2098ft 0kts
07-Nov-19 12:39 36.080755 -115.147519 60 2098ft 0kts
07-Nov-19 12:40 36.080755 -115.147519 60 2098ft 0kts
07-Nov-19 12:41 36.080755 -115.147519 60 2098ft 0kts
07-Nov-19 12:42 36.080755 -115.147519 60 2098ft 0kts
07-Nov-19 12:43 36.080755 -115.147519 60 2098ft 0kts
07-Nov-19 12:44 36.080755 -115.147519 60 2098ft 0kts
07-Nov-19 12:45 36.080755 -115.147519 60 2098ft 0kts
07-Nov-19 12:46 36.080755 -115.147519 60 2098ft 0kts
07-Nov-19 12:47 36.080755 -115.147519 60 2098ft 0kts
07-Nov-19 12:48 36.080755 -115.147519 60 2098ft 0kts
07-Nov-19 12:49 36.080755 -115.147519 60 2098ft 0kts
07-Nov-19 12:50 36.080755 -115.147519 60 2098ft 0kts
07-Nov-19 12:51 36.080755 -115.147519 60 2098ft 0kts
07-Nov-19 12:52 36.080755 -115.147519 60 2098ft 0kts
07-Nov-19 12:53 36.080755 -115.147519 60 2098ft 0kts
07-Nov-19 12:54 36.080751 -115.147526 58 2098ft 0kts
07-Nov-19 12:55 36.080644 -115.147828 58 2099ft 2kts
07-Nov-19 12:56 36.080637 -115.148201 130 2101ft 2kts
07-Nov-19 12:57 36.080776 -115.148314 156 2101ft 0kts
07-Nov-19 12:58 36.080776 -115.148314 156 2101ft 0kts
07-Nov-19 12:59 36.080776 -115.148314 156 2101ft 0kts
07-Nov-19 13:00 36.080776 -115.148314 156 2101ft 0kts
07-Nov-19 13:01 36.080668 -115.148256 156 2101ft 4kts
07-Nov-19 13:02 36.078735 -115.147185 156 2100ft 17kts
07-Nov-19 13:03 36.077600 -115.144445 94 2094ft 18kts
07-Nov-19 13:04 36.077531 -115.139554 90 2079ft 26kts
07-Nov-19 13:05 36.077539 -115.133385 89 2061ft 28kts
07-Nov-19 13:06 36.077542 -115.128546 89 2050ft 13kts
07-Nov-19 13:07 36.077547 -115.124436 89 2042ft 24kts
07-Nov-19 13:08 36.077162 -115.121239 169 2038ft 6kts
07-Nov-19 13:09 36.076412 -115.122239 269 2040ft 23kts
07-Nov-19 13:10 36.076451 -115.146031 270 2102ft 190kts
07-Nov-19 13:11 36.076756 -115.198320 269 4434ft 216kts
07-Nov-19 13:12 36.059811 -115.259318 213 6237ft 280kts
07-Nov-19 13:13 35.997286 -115.290134 200 7033ft 283kts
07-Nov-19 13:14 35.943114 -115.335932 224 7763ft 290kts
07-Nov-19 13:15 35.890892 -115.403113 244 9032ft 293kts
07-Nov-19 13:16 35.887505 -115.491030 272 10655ft 307kts
07-Nov-19 13:17 35.889396 -115.588664 271 11037ft 336kts
07-Nov-19 13:18 35.891164 -115.686875 271 11237ft 338kts
07-Nov-19 13:19 35.892848 -115.787788 271 13294ft 351kts
07-Nov-19 13:20 35.894549 -115.893522 271 15726ft 363kts
07-Nov-19 13:21 35.917185 -115.995543 317 17889ft 368kts
07-Nov-19 13:22 35.980890 -116.068793 318 19866ft 377kts
07-Nov-19 13:23 36.043639 -116.141119 318 21611ft 384kts
07-Nov-19 13:24 36.106184 -116.213338 318 23172ft 392kts
07-Nov-19 13:25 36.171283 -116.288662 318 24653ft 399kts
07-Nov-19 13:26 36.240813 -116.369306 318 26088ft 406kts
07-Nov-19 13:27 36.311209 -116.451161 318 27399ft 413kts
07-Nov-19 13:28 36.382626 -116.534423 318 28613ft 419kts
07-Nov-19 13:29 36.455316 -116.619392 317 29693ft 425kts
07-Nov-19 13:30 36.528592 -116.705279 317 30725ft 430kts
07-Nov-19 13:32 36.610479 -116.783228 329 31634ft 435kts
07-Nov-19 13:33 36.701296 -116.852120 328 32460ft 440kts
07-Nov-19 13:34 36.793060 -116.922009 329 33557ft 435kts
07-Nov-19 13:35 36.878698 -116.987454 331 34923ft 421kts
07-Nov-19 13:36 36.964306 -117.052969 333 35714ft 419kts
07-Nov-19 13:37 37.050971 -117.119446 335 36142ft 426kts
07-Nov-19 13:38 37.138187 -117.186626 335 37070ft 420kts
07-Nov-19 13:39 37.224235 -117.253023 335 37697ft 421kts
07-Nov-19 13:40 37.309095 -117.322035 328 38271ft 427kts
07-Nov-19 13:41 37.386661 -117.404727 327 38365ft 429kts
07-Nov-19 13:42 37.460795 -117.490302 315 38341ft 440kts
07-Nov-19 13:43 37.498394 -117.606967 282 38328ft 473kts
07-Nov-19 13:44 37.504340 -117.741451 279 38301ft 473kts
07-Nov-19 13:45 37.510062 -117.875354 279 38268ft 472kts
07-Nov-19 13:46 37.515735 -118.008566 279 38272ft 472kts
07-Nov-19 13:47 37.523803 -118.136172 283 38286ft 469kts
07-Nov-19 13:48 37.535114 -118.259998 282 38302ft 471kts
07-Nov-19 13:48 37.543944 -118.362545 282 38319ft 471kts
07-Nov-19 13:50 37.557190 -118.519665 282 38378ft 472kts
07-Nov-19 13:51 37.568284 -118.653381 282 38407ft 473kts
07-Nov-19 13:51 37.577135 -118.761450 282 38410ft 473kts
07-Nov-19 13:53 37.589694 -118.916908 281 38407ft 473kts
07-Nov-19 13:54 37.600599 -119.054050 281 38411ft 472kts
07-Nov-19 13:54 37.609366 -119.165810 281 38408ft 472kts
07-Nov-19 13:55 37.619824 -119.300920 281 38402ft 472kts
07-Nov-19 13:57 37.634299 -119.491380 281 38323ft 472kts
07-Nov-19 13:57 37.644304 -119.625673 281 37320ft 469kts
07-Nov-19 13:58 37.656082 -119.786306 280 35048ft 467kts
07-Nov-19 13:59 37.667649 -119.947339 280 33073ft 457kts
07-Nov-19 14:00 37.678852 -120.106038 279 31064ft 449kts
07-Nov-19 14:01 37.689702 -120.262670 277 29029ft 442kts
07-Nov-19 14:02 37.697594 -120.415936 264 26982ft 437kts
07-Nov-19 14:03 37.680927 -120.561187 261 24959ft 431kts
07-Nov-19 14:04 37.664979 -120.696671 259 23135ft 421kts
07-Nov-19 14:05 37.649318 -120.827847 259 21504ft 406kts
07-Nov-19 14:06 37.634901 -120.947108 258 19953ft 392kts
07-Nov-19 14:07 37.619486 -121.064455 258 18454ft 376kts
07-Nov-19 14:08 37.603857 -121.180659 258 16259ft 355kts
07-Nov-19 14:09 37.590230 -121.282413 260 14743ft 306kts
07-Nov-19 14:10 37.580219 -121.370744 261 13481ft 292kts
07-Nov-19 14:11 37.569856 -121.460211 261 12268ft 310kts
07-Nov-19 14:12 37.558455 -121.550410 261 10989ft 304kts
07-Nov-19 14:13 37.547209 -121.636907 258 9744ft 298kts
07-Nov-19 14:14 37.530230 -121.712471 253 8612ft 292kts
07-Nov-19 14:15 37.512263 -121.785897 253 7480ft 288kts
07-Nov-19 14:16 37.495452 -121.855718 253 7033ft 260kts
07-Nov-19 14:17 37.479975 -121.916712 252 6670ft 254kts
07-Nov-19 14:18 37.462694 -121.982332 258 6125ft 250kts
07-Nov-19 14:19 37.480595 -122.047192 298 5176ft 249kts
07-Nov-19 14:20 37.507417 -122.110621 298 4543ft 232kts
07-Nov-19 14:21 37.530051 -122.164329 298 4237ft 210kts
07-Nov-19 14:22 37.549574 -122.210864 298 3494ft 189kts
07-Nov-19 14:23 37.568752 -122.257657 298 2100ft 199kts
07-Nov-19 14:24 37.589515 -122.306644 298 858ft 191kts
07-Nov-19 14:25 37.607196 -122.347975 299 219ft 140kts
07-Nov-19 14:26 37.618046 -122.373461 298 16ft 77kts
07-Nov-19 14:27 37.619775 -122.379174 233 31ft 7kts
07-Nov-19 14:28 37.619117 -122.380171 247 32ft 7kts
07-Nov-19 14:29 37.618763 -122.381048 209 32ft 3kts
07-Nov-19 14:30 37.618525 -122.381193 205 32ft 0kts
07-Nov-19 14:31 37.618525 -122.381193 205 32ft 0kts
07-Nov-19 14:32 37.618525 -122.381193 205 32ft 0kts
07-Nov-19 14:33 37.618525 -122.381193 205 32ft 0kts
07-Nov-19 14:34 37.618525 -122.381193 205 32ft 0kts
07-Nov-19 14:35 37.618525 -122.381193 205 32ft 0kts

Navigation Log

Ident Type
Flight plan parsing failed, navigation log unavailable